createdAt,value
2023-05-04T00:00:18.812Z,60.57
2023-05-04T00:01:18.824Z,59.83
2023-05-04T00:02:18.854Z,59.15
2023-05-04T00:03:18.865Z,59.11
2023-05-04T00:04:18.796Z,59.83
2023-05-04T00:05:18.744Z,60.88
2023-05-04T00:06:18.753Z,61.10
2023-05-04T00:07:18.754Z,60.93
2023-05-04T00:08:18.710Z,61.69
2023-05-04T00:09:18.697Z,62.91
2023-05-04T00:10:18.697Z,65.59
2023-05-04T00:11:18.692Z,66.91
2023-05-04T00:12:18.667Z,68.39
2023-05-04T00:13:18.668Z,70.30
2023-05-04T00:14:18.627Z,71.70
2023-05-04T00:15:18.626Z,72.89
2023-05-04T00:16:18.643Z,74.79
2023-05-04T00:17:18.602Z,76.94
2023-05-04T00:18:18.575Z,79.14
2023-05-04T00:19:18.562Z,81.07
2023-05-04T00:20:18.562Z,82.11
2023-05-04T00:21:18.534Z,82.43
2023-05-04T00:22:18.539Z,83.43
2023-05-04T00:23:18.517Z,84.27
2023-05-04T00:24:18.492Z,85.05
2023-05-04T00:25:18.511Z,86.38
2023-05-04T00:26:18.480Z,88.30
2023-05-04T00:27:18.475Z,90.42
2023-05-04T00:28:18.467Z,91.61
2023-05-04T00:29:18.462Z,91.21
2023-05-04T00:30:18.424Z,91.41
2023-05-04T00:31:18.440Z,92.63
2023-05-04T00:32:18.434Z,94.10
2023-05-04T00:33:18.394Z,94.64
2023-05-04T00:34:18.397Z,93.78
2023-05-04T00:35:18.365Z,95.73
2023-05-04T00:36:18.346Z,94.57
2023-05-04T00:37:18.345Z,94.51
2023-05-04T00:38:18.382Z,95.88
2023-05-04T00:39:18.327Z,97.28
2023-05-04T00:40:18.292Z,97.62
2023-05-04T00:41:18.312Z,98.55
2023-05-04T00:42:18.285Z,98.90
2023-05-04T00:43:18.308Z,97.05
2023-05-04T00:44:18.248Z,97.56
2023-05-04T00:45:18.245Z,97.97
2023-05-04T00:46:18.218Z,100.39
2023-05-04T00:47:18.395Z,100.57
2023-05-04T00:48:18.243Z,101.81
2023-05-04T00:49:18.188Z,101.43
2023-05-04T00:50:18.168Z,100.64
2023-05-04T00:51:18.159Z,99.73
2023-05-04T00:52:18.189Z,100.70
2023-05-04T00:53:18.128Z,102.31
2023-05-04T00:54:18.123Z,103.32
2023-05-04T00:55:18.102Z,102.37
2023-05-04T00:56:18.084Z,102.94
2023-05-04T00:57:18.074Z,102.50
2023-05-04T00:58:18.068Z,103.20
2023-05-04T00:59:18.091Z,102.81
2023-05-04T01:00:18.029Z,103.52
2023-05-04T01:01:18.061Z,104.69
2023-05-04T01:02:18.013Z,104.62
2023-05-04T01:03:18.067Z,103.13
2023-05-04T01:04:18.004Z,103.20
2023-05-04T01:05:17.971Z,103.91
2023-05-04T01:06:17.970Z,104.30
2023-05-04T01:07:17.986Z,106.16
2023-05-04T01:08:17.950Z,104.82
2023-05-04T01:09:17.927Z,104.10
2023-05-04T01:10:17.910Z,102.62
2023-05-04T01:11:17.908Z,100.45
2023-05-04T01:12:17.889Z,98.43
2023-05-04T01:13:17.952Z,96.82
2023-05-04T01:14:17.870Z,96.06
2023-05-04T01:15:17.855Z,94.21
2023-05-04T01:16:17.876Z,93.68
2023-05-04T01:17:17.825Z,93.05
2023-05-04T01:18:17.817Z,91.92
2023-05-04T01:19:17.792Z,91.21
2023-05-04T01:20:17.782Z,89.73
2023-05-04T01:21:17.826Z,87.37
2023-05-04T01:22:17.752Z,85.57
2023-05-04T01:23:17.752Z,84.88
2023-05-04T01:24:17.735Z,86.02
2023-05-04T01:25:17.707Z,88.58
2023-05-04T01:26:17.701Z,92.32
2023-05-04T01:27:17.684Z,95.40
2023-05-04T01:28:17.699Z,94.84
2023-05-04T01:29:17.654Z,95.99
2023-05-04T01:30:17.663Z,95.93
2023-05-04T01:31:17.696Z,96.88
2023-05-04T01:32:17.625Z,98.08
2023-05-04T01:33:17.621Z,97.97
2023-05-04T01:34:17.616Z,98.49
2023-05-04T01:35:17.582Z,100.45
2023-05-04T01:36:17.568Z,101.06
2023-05-04T01:37:17.585Z,99.73
2023-05-04T01:38:17.585Z,98.61
2023-05-04T01:39:17.552Z,95.93
2023-05-04T01:40:17.555Z,94.35
2023-05-04T01:41:17.515Z,95.62
2023-05-04T01:42:17.496Z,93.78
2023-05-04T01:43:17.503Z,93.57
2023-05-04T01:44:17.457Z,94.85
2023-05-04T01:45:17.481Z,95.54
2023-05-04T01:46:17.504Z,97.79
2023-05-04T01:47:17.421Z,101.12
2023-05-04T01:48:17.417Z,104.76
2023-05-04T01:49:17.412Z,106.98
2023-05-04T01:50:17.395Z,108.73
2023-05-04T01:51:17.377Z,109.02
2023-05-04T01:52:17.365Z,108.02
2023-05-04T01:53:17.364Z,107.33
2023-05-04T01:54:17.351Z,105.69
2023-05-04T01:55:17.331Z,104.36
2023-05-04T01:56:17.330Z,104.23
2023-05-04T01:57:17.291Z,104.62
2023-05-04T01:58:17.310Z,103.91
2023-05-04T01:59:17.272Z,105.76
2023-05-04T02:00:17.294Z,105.56
2023-05-04T02:01:17.260Z,105.42
2023-05-04T02:02:17.245Z,104.89
2023-05-04T02:03:17.280Z,102.69
2023-05-04T02:04:17.235Z,99.85
2023-05-04T02:05:17.208Z,95.99
2023-05-04T02:06:17.184Z,92.74
2023-05-04T02:07:17.178Z,86.92
2023-05-04T02:08:17.150Z,81.39
2023-05-04T02:09:17.175Z,77.01
2023-05-04T02:10:17.162Z,75.00
2023-05-04T02:11:17.121Z,73.02
2023-05-04T02:12:17.114Z,71.08
2023-05-04T02:13:17.307Z,70.13
2023-05-04T02:14:17.073Z,69.83
2023-05-04T02:15:17.077Z,70.54
2023-05-04T02:16:17.128Z,70.42
2023-05-04T02:17:17.063Z,70.96
2023-05-04T02:18:17.022Z,72.01
2023-05-04T02:19:17.018Z,72.70
2023-05-04T02:20:17.009Z,74.06
2023-05-04T02:21:16.982Z,76.17
2023-05-04T02:22:16.974Z,77.66
2023-05-04T02:23:16.966Z,78.76
2023-05-04T02:24:16.968Z,79.52
2023-05-04T02:25:16.930Z,81.71
2023-05-04T02:26:16.935Z,84.19
2023-05-04T02:27:16.913Z,85.66
2023-05-04T02:28:16.900Z,86.38
2023-05-04T02:29:16.885Z,87.93
2023-05-04T02:30:16.863Z,88.77
2023-05-04T02:31:17.025Z,88.87
2023-05-04T02:32:16.828Z,90.22
2023-05-04T02:33:16.824Z,91.92
2023-05-04T02:34:16.856Z,91.92
2023-05-04T02:35:16.806Z,91.71
2023-05-04T02:36:16.776Z,91.21
2023-05-04T02:37:16.779Z,89.83
2023-05-04T02:38:16.755Z,90.02
2023-05-04T02:39:16.742Z,89.15
2023-05-04T02:40:16.765Z,89.73
2023-05-04T02:41:16.710Z,89.54
2023-05-04T02:42:16.701Z,90.12
2023-05-04T02:43:16.680Z,90.32
2023-05-04T02:44:16.672Z,89.83
2023-05-04T02:45:16.651Z,88.58
2023-05-04T02:46:16.749Z,84.70
2023-05-04T02:47:16.621Z,81.71
2023-05-04T02:48:16.619Z,80.05
2023-05-04T02:49:16.614Z,78.91
2023-05-04T02:50:16.596Z,77.73
2023-05-04T02:51:16.596Z,76.66
2023-05-04T02:52:16.574Z,76.59
2023-05-04T02:53:16.545Z,77.16
2023-05-04T02:54:16.560Z,78.32
2023-05-04T02:55:16.525Z,79.21
2023-05-04T02:56:16.509Z,79.75
2023-05-04T02:57:16.528Z,79.21
2023-05-04T02:58:16.493Z,77.81
2023-05-04T02:59:16.480Z,77.51
2023-05-04T03:00:16.487Z,78.17
2023-05-04T03:01:16.454Z,77.23
2023-05-04T03:02:16.446Z,75.61
2023-05-04T03:03:16.415Z,71.70
2023-05-04T03:04:16.440Z,68.39
2023-05-04T03:05:16.386Z,66.27
2023-05-04T03:06:16.386Z,64.62
2023-05-04T03:07:16.381Z,62.11
2023-05-04T03:08:16.352Z,60.35
2023-05-04T03:09:16.349Z,57.91
2023-05-04T03:10:16.335Z,57.47
2023-05-04T03:11:16.324Z,57.47
2023-05-04T03:12:16.337Z,56.53
2023-05-04T03:13:16.358Z,55.33
2023-05-04T03:14:16.283Z,55.18
2023-05-04T03:15:16.276Z,55.11
2023-05-04T03:16:16.302Z,55.22
2023-05-04T03:17:16.247Z,55.48
2023-05-04T03:18:16.247Z,55.85
2023-05-04T03:19:16.230Z,55.48
2023-05-04T03:20:16.205Z,54.39
2023-05-04T03:21:16.195Z,52.43
2023-05-04T03:22:16.221Z,50.74
2023-05-04T03:23:16.160Z,49.76
2023-05-04T03:24:16.137Z,48.80
2023-05-04T03:25:16.146Z,48.09
2023-05-04T03:26:16.116Z,47.30
2023-05-04T03:27:16.097Z,46.96
2023-05-04T03:28:16.100Z,46.85
2023-05-04T03:29:16.079Z,46.96
2023-05-04T03:30:16.086Z,46.17
2023-05-04T03:31:16.093Z,44.98
2023-05-04T03:32:16.112Z,43.75
2023-05-04T03:33:16.028Z,42.28
2023-05-04T03:34:16.018Z,40.91
2023-05-04T03:35:19.048Z,40.08
2023-05-04T03:36:15.985Z,39.55
2023-05-04T03:37:15.971Z,39.36
2023-05-04T03:38:15.965Z,38.77
2023-05-04T03:39:15.945Z,37.92
2023-05-04T03:40:15.943Z,37.45
2023-05-04T03:41:15.925Z,37.18
2023-05-04T03:42:15.902Z,36.72
2023-05-04T03:43:15.886Z,36.53
2023-05-04T03:44:15.903Z,36.37
2023-05-04T03:45:15.876Z,36.37
2023-05-04T03:46:15.899Z,36.30
2023-05-04T03:47:15.852Z,36.27
2023-05-04T03:48:15.853Z,36.21
2023-05-04T03:49:15.820Z,35.90
2023-05-04T03:50:15.817Z,35.68
2023-05-04T03:51:15.784Z,35.74
2023-05-04T03:52:15.819Z,35.62
2023-05-04T03:53:15.775Z,35.41
2023-05-04T03:54:15.748Z,35.41
2023-05-04T03:55:15.748Z,35.47
2023-05-04T03:56:15.755Z,35.65
2023-05-04T03:57:15.733Z,35.68
2023-05-04T03:58:15.726Z,35.80
2023-05-04T03:59:15.689Z,35.83
2023-05-04T04:00:15.723Z,35.56
2023-05-04T04:01:15.659Z,35.53
2023-05-04T04:02:15.696Z,35.65
2023-05-04T04:03:15.773Z,35.71
2023-05-04T04:04:15.713Z,35.65
2023-05-04T04:05:15.638Z,35.68
2023-05-04T04:06:22.188Z,35.83
2023-05-04T04:07:15.633Z,35.93
2023-05-04T04:08:15.612Z,36.27
2023-05-04T04:09:15.616Z,36.37
2023-05-04T04:10:15.597Z,36.85
2023-05-04T04:11:15.626Z,37.18
2023-05-04T04:12:15.657Z,37.01
2023-05-04T04:13:15.631Z,37.08
2023-05-04T04:14:15.511Z,37.11
2023-05-04T04:15:15.516Z,37.01
2023-05-04T04:16:15.597Z,37.08
2023-05-04T04:17:15.462Z,36.82
2023-05-04T04:18:15.454Z,37.38
2023-05-04T04:19:15.451Z,37.11
2023-05-04T04:20:15.430Z,36.98
2023-05-04T04:21:15.993Z,37.45
2023-05-04T04:22:15.390Z,37.79
2023-05-04T04:23:15.418Z,38.24
2023-05-04T04:24:15.377Z,38.27
2023-05-04T04:25:15.367Z,38.67
2023-05-04T04:26:15.344Z,38.49
2023-05-04T04:27:15.409Z,38.49
2023-05-04T04:28:15.346Z,37.86
2023-05-04T04:29:15.369Z,37.62
2023-05-04T04:30:15.324Z,37.45
2023-05-04T04:31:15.350Z,37.05
2023-05-04T04:32:15.284Z,36.88
2023-05-04T04:33:16.654Z,36.18
2023-05-04T04:34:15.245Z,36.18
2023-05-04T04:35:15.276Z,36.21
2023-05-04T04:36:15.235Z,36.59
2023-05-04T04:37:15.229Z,36.46
2023-05-04T04:38:15.309Z,36.46
2023-05-04T04:39:15.219Z,36.27
2023-05-04T04:40:15.208Z,35.65
2023-05-04T04:41:15.151Z,35.08
2023-05-04T04:42:15.218Z,34.90
2023-05-04T04:43:15.201Z,35.02
2023-05-04T04:44:15.170Z,34.76
2023-05-04T04:45:15.136Z,34.53
2023-05-04T04:46:16.140Z,34.47
2023-05-04T04:47:15.092Z,34.50
2023-05-04T04:48:15.121Z,34.96
2023-05-04T04:49:15.070Z,34.93
2023-05-04T04:50:15.052Z,34.70
2023-05-04T04:51:15.101Z,34.64
2023-05-04T04:52:15.652Z,34.35
2023-05-04T04:53:15.033Z,34.27
2023-05-04T04:54:15.004Z,34.19
2023-05-04T04:55:15.010Z,33.69
2023-05-04T04:56:14.998Z,33.58
2023-05-04T04:57:14.965Z,33.50
2023-05-04T04:58:15.105Z,33.31
2023-05-04T04:59:14.959Z,33.66
2023-05-04T05:00:14.937Z,33.39
2023-05-04T05:01:14.956Z,33.36
2023-05-04T05:02:14.929Z,33.85
2023-05-04T05:03:14.912Z,33.99
2023-05-04T05:04:14.895Z,34.70
2023-05-04T05:05:14.926Z,35.53
2023-05-04T05:06:14.893Z,35.44
2023-05-04T05:07:14.876Z,35.83
2023-05-04T05:08:14.898Z,36.72
2023-05-04T05:09:14.835Z,37.25
2023-05-04T05:10:14.816Z,37.08
2023-05-04T05:11:14.810Z,36.62
2023-05-04T05:12:14.801Z,36.69
2023-05-04T05:13:15.019Z,37.21
2023-05-04T05:14:14.810Z,38.20
2023-05-04T05:15:14.760Z,39.03
2023-05-04T05:16:14.811Z,39.81
2023-05-04T05:17:14.753Z,39.70
2023-05-04T05:18:14.721Z,39.62
2023-05-04T05:19:14.725Z,39.10
2023-05-04T05:20:14.730Z,38.81
2023-05-04T05:21:14.714Z,38.56
2023-05-04T05:22:14.660Z,38.24
2023-05-04T05:23:15.524Z,38.74
2023-05-04T05:24:14.659Z,39.62
2023-05-04T05:25:14.643Z,40.39
2023-05-04T05:26:14.623Z,40.71
2023-05-04T05:27:14.628Z,42.24
2023-05-04T05:28:14.631Z,42.71
2023-05-04T05:29:14.579Z,43.89
2023-05-04T05:30:14.564Z,44.45
2023-05-04T05:31:14.660Z,45.12
2023-05-04T05:32:14.544Z,46.49
2023-05-04T05:33:14.605Z,47.63
2023-05-04T05:34:14.516Z,48.09
2023-05-04T05:35:14.534Z,46.28
2023-05-04T05:36:14.495Z,44.69
2023-05-04T05:37:14.495Z,44.21
2023-05-04T05:38:14.472Z,43.75
2023-05-04T05:39:14.459Z,45.17
2023-05-04T05:40:14.435Z,46.80
2023-05-04T05:41:14.423Z,45.92
2023-05-04T05:42:14.450Z,45.62
2023-05-04T05:43:14.416Z,44.74
2023-05-04T05:44:14.424Z,44.54
2023-05-04T05:45:14.393Z,44.69
2023-05-04T05:46:14.403Z,44.31
2023-05-04T05:47:14.343Z,44.50
2023-05-04T05:48:14.390Z,44.12
2023-05-04T05:49:14.344Z,44.07
2023-05-04T05:50:14.326Z,44.69
2023-05-04T05:51:14.397Z,44.69
2023-05-04T05:52:14.283Z,45.37
2023-05-04T05:53:14.348Z,46.02
2023-05-04T05:54:14.270Z,47.01
2023-05-04T05:55:14.317Z,47.63
2023-05-04T05:56:15.341Z,48.12
2023-05-04T05:57:14.254Z,47.87
2023-05-04T05:58:14.266Z,46.98
2023-05-04T05:59:14.217Z,46.28
2023-05-04T06:00:14.231Z,46.12
2023-05-04T06:01:14.228Z,47.01
2023-05-04T06:02:14.236Z,47.35
2023-05-04T06:03:14.337Z,45.67
2023-05-04T06:04:16.164Z,44.03
2023-05-04T06:05:14.247Z,44.26
2023-05-04T06:06:14.115Z,44.26
2023-05-04T06:07:14.606Z,44.21
2023-05-04T06:08:14.340Z,43.93
2023-05-04T06:09:14.281Z,41.85
2023-05-04T06:10:15.071Z,40.87
2023-05-04T06:11:15.106Z,39.47
2023-05-04T06:12:14.510Z,38.96
2023-05-04T06:13:14.484Z,39.25
2023-05-04T06:14:13.997Z,41.07
2023-05-04T06:15:14.012Z,42.85
2023-05-04T06:16:14.030Z,43.56
2023-05-04T06:17:13.974Z,44.50
2023-05-04T06:18:13.984Z,45.37
2023-05-04T06:19:13.961Z,46.43
2023-05-04T06:20:13.935Z,47.93
2023-05-04T06:21:13.940Z,48.37
2023-05-04T06:22:13.902Z,48.57
2023-05-04T06:23:13.890Z,49.03
2023-05-04T06:24:13.905Z,49.50
2023-05-04T06:25:13.890Z,48.66
2023-05-04T06:26:13.852Z,48.71
2023-05-04T06:27:13.862Z,47.09
2023-05-04T06:28:13.890Z,45.32
2023-05-04T06:29:14.545Z,43.20
2023-05-04T06:30:13.813Z,41.60
2023-05-04T06:31:13.878Z,40.83
2023-05-04T06:32:13.920Z,41.40
2023-05-04T06:33:13.785Z,43.02
2023-05-04T06:34:13.848Z,44.31
2023-05-04T06:35:13.787Z,46.33
2023-05-04T06:36:13.744Z,47.09
2023-05-04T06:37:16.077Z,47.11
2023-05-04T06:38:13.734Z,46.95
2023-05-04T06:39:13.741Z,46.85
2023-05-04T06:40:14.132Z,46.90
2023-05-04T06:41:13.672Z,47.68
2023-05-04T06:42:13.684Z,48.49
2023-05-04T06:43:13.648Z,49.17
2023-05-04T06:44:13.649Z,49.67
2023-05-04T06:45:17.649Z,49.44
2023-05-04T06:46:14.204Z,49.32
2023-05-04T06:47:17.960Z,48.09
2023-05-04T06:48:13.589Z,46.98
2023-05-04T06:49:13.696Z,47.17
2023-05-04T06:50:13.569Z,47.27
2023-05-04T06:51:13.552Z,47.12
2023-05-04T06:52:13.526Z,46.12
2023-05-04T06:53:13.531Z,45.03
2023-05-04T06:54:13.543Z,45.37
2023-05-04T06:55:13.515Z,45.17
2023-05-04T06:56:13.508Z,43.56
2023-05-04T06:57:13.511Z,42.63
2023-05-04T06:58:13.454Z,42.85
2023-05-04T06:59:13.439Z,44.03
2023-05-04T07:00:13.472Z,44.98
2023-05-04T07:01:13.448Z,45.22
2023-05-04T07:02:13.421Z,45.42
2023-05-04T07:03:13.444Z,46.80
2023-05-04T07:04:13.394Z,47.35
2023-05-04T07:05:13.516Z,48.77
2023-05-04T07:06:13.423Z,51.33
2023-05-04T07:07:13.355Z,55.78
2023-05-04T07:08:13.377Z,57.15
2023-05-04T07:09:13.364Z,57.63
2023-05-04T07:10:13.315Z,56.80
2023-05-04T07:11:13.291Z,54.60
2023-05-04T07:12:13.289Z,52.73
2023-05-04T07:13:13.350Z,52.56
2023-05-04T07:14:13.318Z,54.96
2023-05-04T07:15:13.244Z,57.27
2023-05-04T07:16:13.231Z,54.96
2023-05-04T07:17:13.195Z,55.92
2023-05-04T07:18:13.310Z,59.62
2023-05-04T07:19:13.192Z,64.12
2023-05-04T07:20:13.176Z,68.79
2023-05-04T07:21:26.900Z,70.72
2023-05-04T07:22:13.144Z,71.21
2023-05-04T07:23:13.133Z,73.02
2023-05-04T07:24:13.094Z,72.13
2023-05-04T07:25:13.102Z,69.71
2023-05-04T07:26:13.066Z,71.57
2023-05-04T07:27:13.055Z,68.51
2023-05-04T07:28:13.093Z,67.23
2023-05-04T07:29:13.036Z,69.77
2023-05-04T07:30:13.432Z,70.72
2023-05-04T07:31:13.074Z,72.51
2023-05-04T07:32:13.021Z,74.59
2023-05-04T07:33:13.074Z,75.54
2023-05-04T07:34:12.958Z,73.54
2023-05-04T07:35:12.983Z,76.94
2023-05-04T07:36:12.982Z,78.39
2023-05-04T07:37:12.919Z,80.75
2023-05-04T07:38:12.946Z,87.93
2023-05-04T07:39:12.933Z,90.71
2023-05-04T07:40:13.003Z,91.01
2023-05-04T07:41:12.933Z,95.40
2023-05-04T07:42:12.868Z,95.71
2023-05-04T07:43:12.870Z,95.05
2023-05-04T07:44:12.878Z,96.38
2023-05-04T07:45:12.826Z,98.72
2023-05-04T07:46:12.872Z,103.00
2023-05-04T07:47:12.804Z,105.42
2023-05-04T07:48:12.894Z,104.76
2023-05-04T07:49:12.786Z,99.55
2023-05-04T07:50:12.774Z,101.62
2023-05-04T07:51:12.753Z,104.10
2023-05-04T07:52:13.305Z,105.96
2023-05-04T07:53:12.731Z,105.29
2023-05-04T07:54:12.735Z,101.12
2023-05-04T07:55:12.701Z,101.74
2023-05-04T07:56:12.719Z,98.49
2023-05-04T07:57:12.666Z,105.02
2023-05-04T07:58:12.659Z,110.10
2023-05-04T07:59:12.694Z,112.10
2023-05-04T08:00:12.655Z,114.18
2023-05-04T08:01:12.624Z,110.03
2023-05-04T08:02:12.632Z,113.40
2023-05-04T08:03:12.636Z,108.66
2023-05-04T08:04:12.569Z,108.94
2023-05-04T08:05:12.563Z,113.79
2023-05-04T08:06:12.567Z,113.56
2023-05-04T08:07:13.338Z,120.30
2023-05-04T08:08:12.540Z,120.91
2023-05-04T08:09:12.573Z,114.73
2023-05-04T08:10:12.549Z,116.75
2023-05-04T08:11:20.156Z,118.83
2023-05-04T08:12:12.474Z,116.34
2023-05-04T08:13:12.621Z,112.48
2023-05-04T08:14:12.497Z,111.50
2023-05-04T08:15:12.456Z,104.56
2023-05-04T08:16:12.405Z,115.61
2023-05-04T08:17:12.452Z,131.01
2023-05-04T08:18:12.414Z,145.07
2023-05-04T08:19:12.383Z,159.70
2023-05-04T08:20:12.396Z,168.10
2023-05-04T08:21:12.378Z,171.21
2023-05-04T08:22:12.343Z,167.42
2023-05-04T08:23:12.340Z,164.28
2023-05-04T08:24:12.324Z,165.92
2023-05-04T08:25:12.327Z,170.69
2023-05-04T08:26:12.291Z,172.28
2023-05-04T08:27:12.290Z,180.31
2023-05-04T08:28:12.279Z,185.13
2023-05-04T08:29:12.250Z,185.76
2023-05-04T08:30:12.255Z,192.55
2023-05-04T08:31:13.162Z,198.15
2023-05-04T08:32:12.200Z,212.86
2023-05-04T08:33:12.312Z,225.80
2023-05-04T08:34:12.176Z,237.96
2023-05-04T08:35:12.272Z,245.65
2023-05-04T08:36:12.160Z,244.55
2023-05-04T08:37:12.174Z,234.71
2023-05-04T08:38:12.143Z,248.83
2023-05-04T08:39:12.141Z,251.70
2023-05-04T08:40:12.104Z,251.51
2023-05-04T08:41:12.089Z,249.78
2023-05-04T08:42:12.079Z,247.88
2023-05-04T08:43:12.065Z,259.29
2023-05-04T08:44:12.044Z,264.54
2023-05-04T08:45:12.088Z,267.57
2023-05-04T08:46:12.050Z,254.84
2023-05-04T08:47:12.021Z,262.20
2023-05-04T08:48:11.986Z,256.64
2023-05-04T08:49:11.976Z,249.21
2023-05-04T08:50:11.974Z,260.53
2023-05-04T08:51:11.984Z,261.57
2023-05-04T08:52:11.947Z,264.54
2023-05-04T08:53:11.986Z,270.22
2023-05-04T08:54:11.911Z,271.12
2023-05-04T08:55:11.944Z,260.32
2023-05-04T08:56:11.958Z,260.95
2023-05-04T08:57:11.897Z,273.61
2023-05-04T08:58:11.916Z,282.60
2023-05-04T08:59:11.879Z,279.22
2023-05-04T09:00:11.841Z,283.83
2023-05-04T09:01:12.069Z,278.04
2023-05-04T09:02:11.880Z,283.83
2023-05-04T09:03:11.954Z,284.32
2023-05-04T09:04:11.807Z,287.83
2023-05-04T09:05:11.804Z,293.51
2023-05-04T09:06:11.816Z,294.04
2023-05-04T09:07:11.757Z,296.17
2023-05-04T09:08:11.761Z,303.88
2023-05-04T09:09:11.732Z,304.17
2023-05-04T09:10:11.718Z,293.25
2023-05-04T09:11:11.757Z,274.99
2023-05-04T09:12:11.688Z,272.02
2023-05-04T09:13:11.788Z,270.44
2023-05-04T09:14:11.695Z,265.61
2023-05-04T09:15:11.656Z,256.24
2023-05-04T09:16:14.050Z,274.99
2023-05-04T09:17:11.660Z,281.87
2023-05-04T09:18:11.603Z,286.57
2023-05-04T09:19:11.597Z,286.57
2023-05-04T09:20:11.566Z,288.59
2023-05-04T09:21:11.570Z,291.42
2023-05-04T09:22:11.550Z,285.32
2023-05-04T09:23:11.564Z,278.75
2023-05-04T09:24:11.538Z,278.98
2023-05-04T09:25:11.512Z,272.25
2023-05-04T09:26:11.514Z,278.98
2023-05-04T09:27:11.541Z,278.75
2023-05-04T09:28:11.462Z,290.39
2023-05-04T09:29:11.449Z,294.57
2023-05-04T09:30:11.462Z,290.64
2023-05-04T09:31:11.515Z,280.42
2023-05-04T09:32:11.417Z,297.79
2023-05-04T09:33:11.438Z,300.81
2023-05-04T09:34:11.480Z,303.04
2023-05-04T09:35:14.181Z,314.71
2023-05-04T09:36:11.393Z,286.57
2023-05-04T09:37:11.357Z,284.08
2023-05-04T09:38:11.345Z,297.25
2023-05-04T09:39:11.575Z,299.15
2023-05-04T09:40:11.325Z,315.92
2023-05-04T09:41:11.294Z,313.50
2023-05-04T09:42:11.280Z,323.11
2023-05-04T09:43:11.279Z,331.96
2023-05-04T09:44:11.309Z,339.20
2023-05-04T09:45:11.291Z,348.60
2023-05-04T09:46:11.325Z,348.23
2023-05-04T09:47:11.211Z,351.23
2023-05-04T09:48:11.225Z,344.93
2023-05-04T09:49:11.224Z,364.95
2023-05-04T09:50:11.206Z,374.14
2023-05-04T09:51:11.150Z,368.24
2023-05-04T09:52:11.175Z,381.36
2023-05-04T09:53:11.114Z,391.48
2023-05-04T09:54:11.132Z,395.91
2023-05-04T09:55:11.104Z,365.77
2023-05-04T09:56:11.146Z,350.10
2023-05-04T09:57:11.148Z,349.35
2023-05-04T09:58:11.059Z,358.55
2023-05-04T09:59:11.051Z,369.07
2023-05-04T10:00:11.343Z,382.68
2023-05-04T10:01:11.082Z,374.57
2023-05-04T10:02:22.108Z,337.10
2023-05-04T10:03:11.000Z,313.50
2023-05-04T10:04:10.951Z,275.23
2023-05-04T10:05:10.961Z,255.84
2023-05-04T10:06:10.960Z,258.47
2023-05-04T10:07:16.932Z,272.25
2023-05-04T10:08:10.901Z,255.44
2023-05-04T10:09:10.891Z,232.54
2023-05-04T10:10:10.894Z,228.16
2023-05-04T10:11:10.859Z,232.21
2023-05-04T10:12:10.883Z,232.71
2023-05-04T10:13:10.930Z,232.71
2023-05-04T10:14:10.840Z,233.04
2023-05-04T10:15:10.816Z,234.38
2023-05-04T10:16:10.821Z,218.40
2023-05-04T10:17:13.166Z,218.99
2023-05-04T10:18:10.761Z,218.11
2023-05-04T10:19:10.752Z,232.38
2023-05-04T10:20:10.749Z,234.71
2023-05-04T10:21:10.722Z,212.30
2023-05-04T10:22:10.733Z,186.40
2023-05-04T10:23:10.686Z,202.95
2023-05-04T10:24:10.695Z,203.58
2023-05-04T10:25:10.678Z,203.71
2023-05-04T10:26:10.653Z,201.32
2023-05-04T10:27:10.660Z,195.54
2023-05-04T10:28:10.622Z,187.90
2023-05-04T10:29:10.645Z,202.82
2023-05-04T10:30:10.604Z,204.47
2023-05-04T10:31:10.617Z,194.49
2023-05-04T10:32:10.638Z,192.66
2023-05-04T10:33:10.622Z,185.55
2023-05-04T10:34:10.576Z,208.25
2023-05-04T10:35:10.527Z,213.14
2023-05-04T10:36:10.538Z,198.63
2023-05-04T10:37:10.496Z,209.58
2023-05-04T10:38:10.496Z,198.63
2023-05-04T10:39:10.457Z,185.75
2023-05-04T10:40:10.496Z,182.09
2023-05-04T10:41:10.432Z,193.69
2023-05-04T10:42:10.437Z,208.12
2023-05-04T10:43:10.416Z,216.67
2023-05-04T10:44:10.407Z,211.07
2023-05-04T10:45:10.407Z,215.38
2023-05-04T10:46:10.433Z,233.87
2023-05-04T10:47:10.372Z,266.04
2023-05-04T10:48:10.379Z,259.08
2023-05-04T10:49:10.317Z,234.55
2023-05-04T10:50:10.309Z,231.23
2023-05-04T10:51:11.080Z,229.60
2023-05-04T10:52:10.476Z,265.39
2023-05-04T10:53:10.312Z,281.63
2023-05-04T10:54:10.292Z,298.06
2023-05-04T10:55:10.306Z,319.32
2023-05-04T10:56:10.280Z,320.26
2023-05-04T10:57:10.269Z,319.94
2023-05-04T10:58:10.204Z,336.75
2023-05-04T10:59:10.253Z,305.59
2023-05-04T11:00:10.171Z,299.15
2023-05-04T11:01:10.189Z,298.88
2023-05-04T11:02:10.183Z,301.08
2023-05-04T11:03:10.217Z,272.70
2023-05-04T11:04:10.130Z,281.39
2023-05-04T11:05:10.114Z,312.00
2023-05-04T11:06:10.088Z,335.72
2023-05-04T11:07:10.096Z,354.27
2023-05-04T11:08:10.057Z,386.24
2023-05-04T11:09:10.042Z,397.57
2023-05-04T11:10:10.049Z,367.00
2023-05-04T11:11:10.015Z,370.75
2023-05-04T11:12:10.032Z,358.15
2023-05-04T11:13:10.036Z,362.12
2023-05-04T11:14:09.978Z,375.86
2023-05-04T11:15:09.996Z,388.95
2023-05-04T11:16:10.004Z,389.64
2023-05-04T11:17:26.800Z,353.12
2023-05-04T11:18:10.033Z,353.89
2023-05-04T11:19:09.954Z,364.14
2023-05-04T11:20:09.899Z,377.60
2023-05-04T11:21:09.891Z,361.72
2023-05-04T11:22:09.883Z,385.35
2023-05-04T11:23:09.861Z,415.99
2023-05-04T11:24:09.873Z,442.30
2023-05-04T11:25:09.827Z,456.27
2023-05-04T11:26:09.814Z,412.63
2023-05-04T11:27:09.842Z,381.36
2023-05-04T11:28:09.804Z,398.52
2023-05-04T11:29:09.786Z,402.38
2023-05-04T11:30:09.762Z,396.62
2023-05-04T11:31:09.792Z,397.57
2023-05-04T11:32:09.728Z,392.40
2023-05-04T11:33:09.766Z,398.04
2023-05-04T11:34:09.711Z,399.24
2023-05-04T11:35:09.729Z,366.18
2023-05-04T11:36:09.677Z,387.14
2023-05-04T11:37:09.656Z,402.38
2023-05-04T11:38:09.675Z,410.08
2023-05-04T11:39:09.633Z,419.67
2023-05-04T11:40:09.648Z,380.27
2023-05-04T11:41:09.615Z,365.36
2023-05-04T11:42:09.604Z,406.32
2023-05-04T11:43:09.609Z,405.33
2023-05-04T11:44:09.608Z,423.14
2023-05-04T11:45:09.553Z,424.22
2023-05-04T11:46:09.572Z,418.08
2023-05-04T11:47:09.539Z,405.83
2023-05-04T11:48:09.642Z,415.73
2023-05-04T11:49:09.500Z,455.34
2023-05-04T11:50:09.500Z,498.38
2023-05-04T11:51:09.501Z,519.82
2023-05-04T11:52:09.470Z,513.00
2023-05-04T11:53:09.628Z,503.67
2023-05-04T11:54:09.466Z,504.43
2023-05-04T11:55:09.569Z,494.67
2023-05-04T11:56:09.400Z,497.63
2023-05-04T11:57:09.383Z,476.23
2023-05-04T11:58:09.391Z,436.77
2023-05-04T11:59:09.371Z,444.37
2023-05-04T12:00:09.353Z,456.90
2023-05-04T12:01:09.354Z,447.36
2023-05-04T12:02:09.330Z,455.96
2023-05-04T12:03:09.428Z,429.71
2023-05-04T12:04:09.408Z,434.21
2023-05-04T12:05:09.472Z,422.34
2023-05-04T12:06:09.292Z,431.95
2023-05-04T12:07:09.269Z,428.60
2023-05-04T12:08:09.279Z,440.83
2023-05-04T12:09:09.248Z,478.28
2023-05-04T12:10:09.230Z,502.90
2023-05-04T12:11:09.189Z,518.20
2023-05-04T12:12:09.205Z,502.14
2023-05-04T12:13:09.213Z,489.20
2023-05-04T12:14:09.171Z,428.60
2023-05-04T12:15:09.244Z,460.39
2023-05-04T12:16:09.176Z,491.74
2023-05-04T12:17:09.105Z,523.92
2023-05-04T12:18:09.160Z,510.24
2023-05-04T12:19:09.093Z,507.90
2023-05-04T12:20:09.070Z,493.56
2023-05-04T12:21:09.083Z,438.22
2023-05-04T12:22:09.063Z,462.31
2023-05-04T12:23:09.060Z,483.50
2023-05-04T12:24:09.071Z,477.60
2023-05-04T12:25:09.319Z,433.07
2023-05-04T12:26:09.008Z,382.02
2023-05-04T12:27:08.987Z,389.64
2023-05-04T12:28:08.971Z,386.47
2023-05-04T12:29:08.975Z,404.10
2023-05-04T12:30:08.942Z,421.53
2023-05-04T12:31:08.983Z,455.34
2023-05-04T12:32:09.029Z,428.88
2023-05-04T12:33:08.943Z,395.67
2023-05-04T12:34:08.920Z,373.29
2023-05-04T12:35:09.170Z,406.82
2023-05-04T12:36:08.892Z,433.64
2023-05-04T12:37:08.905Z,449.18
2023-05-04T12:38:08.890Z,459.11
2023-05-04T12:39:08.832Z,427.77
2023-05-04T12:40:20.949Z,382.46
2023-05-04T12:41:08.791Z,395.20